Savannah, GA (31405)

08:55 EDT le 03 mai 2015 (GMT -0400)
Halcyon Bluff II | | Change Station
CLOSE
Current Station
Stations météorologiques personnelles
Location: Savannah, GA
Altitude: 20 ft
Stations météo à proximité

Alt. 20 ft 31.98 °N, 81.11 °W | Updated 0 second ago

Clear
Ciel dégagé
63.1 ° F
Paraît 63.1 ° F
N
0.0
Vent Variable Vent de SO
Gusts 3.0 mph

Aujourd'hui
Haut(e) -- | Bas -- ° F
--% Risque de précip.
Hier
Haut(e) -- | Bas -- ° F
Precip. -- pouce
6:37 AM 8:06 PM
Pleine lune, 100% visible
Pression 30.15 pouce
Visibilité 10.0 Miles terrestres
Nuages Ciel dégagé
Point de rosée 55 ° F
Humidité 76%
Précipitations 0.00 pouce
Profondeur de la couche neigeuse Non disponible.
UV 1 sur 12
Pollen 7.10 sur 12
Qualité de l'air Non disponible.
Flu Activity Sporadic
METAR KSVN 031158Z AUTO 00000KT 10SM CLR 15/14 A3014 RMK AO2 SLP209 T01480139 10148 20124 53018 $

More Conditions Fewer Conditions

Pression 30.15 pouce
Visibilité 10.0 Miles terrestres
Nuages Ciel dégagé
Point de rosée 55 ° F
Humidité 76%
Précipitations 0.00 pouce
Profondeur de la couche neigeuse Non disponible.
UV 1 sur 12
Pollen 7.10 sur 12
Qualité de l'air Non disponible.
Flu Activity Sporadic
METAR KSVN 031158Z AUTO 00000KT 10SM CLR 15/14 A3014 RMK AO2 SLP209 T01480139 10148 20124 53018 $

More Conditions Fewer Conditions

Nepal has a long way to go to dig out and rebuild from a devastating earthquake. We have teamed up with several charities and organizations to make contributing to the relief effort as easy as possible.
How you can help: Portlight Strategies | Red Cross

10-Day Weather Forecast

Almanac

Astronomie

May. 03, 2015 Lever Coucher
Temps réel
Crépuscule civil
Crépuscule nautique
Crépuscule astronomique
Lune
Durée de lumière visible
Longueur du jour
Tomorrow will be .
, % of the Moon is Illuminated

Extrêmes aujourd'hui

State Highs State Lows

Community

WunderPhotos

Upload Photos

1,818,200 Photos téléchargées !

WunderBlogs® & News

Nearby

Qualité de l'air

  Qualité de l'air Indice de la qualité de l'air Polluant
Not available.

Épaisseur de neige

Station Depth Altitude

Activité sismique

Ville Distance Mag. Time & Date
Minimum magnitude displayed is 2.5.

Températures des eaux côtières

Lieu Température

Stations

Stations météo à proximité

Emplacement de la station Température Refroidissement éolien Point de rosée Humidité Vent Precip. Alt. Mise à jour Type